sensor_id;sensor_type;location;lat;lon;timestamp;P1;durP1;ratioP1;P2;durP2;ratioP2
37355;SDS011;48747;50.250;18.848;2022-08-19T00:00:00;15.90;;;9.30;;
37355;SDS011;48747;50.250;18.848;2022-08-19T00:02:06;13.95;;;9.88;;
37355;SDS011;48747;50.250;18.848;2022-08-19T00:04:11;11.48;;;9.68;;
37355;SDS011;48747;50.250;18.848;2022-08-19T00:06:17;11.30;;;9.13;;
37355;SDS011;48747;50.250;18.848;2022-08-19T00:08:22;17.35;;;9.63;;
37355;SDS011;48747;50.250;18.848;2022-08-19T00:10:28;12.13;;;9.25;;
37355;SDS011;48747;50.250;18.848;2022-08-19T00:12:31;11.88;;;9.98;;
37355;SDS011;48747;50.250;18.848;2022-08-19T00:14:36;12.85;;;10.08;;
37355;SDS011;48747;50.250;18.848;2022-08-19T00:16:43;15.98;;;10.70;;
37355;SDS011;48747;50.250;18.848;2022-08-19T00:18:48;11.30;;;10.10;;
37355;SDS011;48747;50.250;18.848;2022-08-19T00:20:53;11.75;;;9.60;;
37355;SDS011;48747;50.250;18.848;2022-08-19T00:22:59;20.75;;;11.38;;
37355;SDS011;48747;50.250;18.848;2022-08-19T00:25:05;13.60;;;10.23;;
37355;SDS011;48747;50.250;18.848;2022-08-19T00:27:14;14.85;;;10.23;;
37355;SDS011;48747;50.250;18.848;2022-08-19T00:29:18;11.38;;;10.03;;
37355;SDS011;48747;50.250;18.848;2022-08-19T00:31:22;11.68;;;10.30;;
37355;SDS011;48747;50.250;18.848;2022-08-19T00:33:26;13.15;;;9.75;;
37355;SDS011;48747;50.250;18.848;2022-08-19T00:35:32;11.60;;;10.20;;
37355;SDS011;48747;50.250;18.848;2022-08-19T00:37:40;13.03;;;9.73;;
37355;SDS011;48747;50.250;18.848;2022-08-19T00:39:42;12.68;;;10.20;;
37355;SDS011;48747;50.250;18.848;2022-08-19T00:41:46;14.10;;;10.28;;
37355;SDS011;48747;50.250;18.848;2022-08-19T00:43:57;13.43;;;10.45;;
37355;SDS011;48747;50.250;18.848;2022-08-19T00:48:06;13.50;;;10.58;;
37355;SDS011;48747;50.250;18.848;2022-08-19T00:50:09;14.60;;;10.50;;
37355;SDS011;48747;50.250;18.848;2022-08-19T00:52:16;14.53;;;10.48;;
37355;SDS011;48747;50.250;18.848;2022-08-19T00:54:21;13.03;;;10.75;;
37355;SDS011;48747;50.250;18.848;2022-08-19T00:56:24;14.58;;;10.65;;
37355;SDS011;48747;50.250;18.848;2022-08-19T00:58:29;14.55;;;11.33;;
37355;SDS011;48747;50.250;18.848;2022-08-19T01:00:34;11.75;;;10.30;;
37355;SDS011;48747;50.250;18.848;2022-08-19T01:02:38;12.28;;;10.45;;
37355;SDS011;48747;50.250;18.848;2022-08-19T01:04:43;15.00;;;10.98;;
37355;SDS011;48747;50.250;18.848;2022-08-19T01:06:48;12.73;;;10.18;;
37355;SDS011;48747;50.250;18.848;2022-08-19T01:08:51;16.20;;;11.05;;
37355;SDS011;48747;50.250;18.848;2022-08-19T01:10:56;14.63;;;10.78;;
37355;SDS011;48747;50.250;18.848;2022-08-19T01:13:01;13.32;;;10.35;;
37355;SDS011;48747;50.250;18.848;2022-08-19T01:15:09;19.42;;;11.10;;
37355;SDS011;48747;50.250;18.848;2022-08-19T01:17:14;14.58;;;10.80;;
37355;SDS011;48747;50.250;18.848;2022-08-19T01:19:31;15.85;;;10.68;;
37355;SDS011;48747;50.250;18.848;2022-08-19T01:21:39;16.00;;;10.85;;
37355;SDS011;48747;50.250;18.848;2022-08-19T01:23:41;16.70;;;10.72;;
37355;SDS011;48747;50.250;18.848;2022-08-19T01:25:48;13.55;;;10.63;;
37355;SDS011;48747;50.250;18.848;2022-08-19T01:27:53;13.65;;;11.30;;
37355;SDS011;48747;50.250;18.848;2022-08-19T01:29:56;14.95;;;11.18;;
37355;SDS011;48747;50.250;18.848;2022-08-19T01:32:00;17.20;;;10.20;;
37355;SDS011;48747;50.250;18.848;2022-08-19T01:34:05;13.28;;;11.12;;
37355;SDS011;48747;50.250;18.848;2022-08-19T01:36:11;14.15;;;10.70;;
37355;SDS011;48747;50.250;18.848;2022-08-19T01:38:22;14.73;;;11.18;;
37355;SDS011;48747;50.250;18.848;2022-08-19T01:40:29;13.30;;;11.53;;
37355;SDS011;48747;50.250;18.848;2022-08-19T01:42:34;14.65;;;11.03;;
37355;SDS011;48747;50.250;18.848;2022-08-19T01:44:38;11.88;;;10.60;;
37355;SDS011;48747;50.250;18.848;2022-08-19T01:46:50;15.20;;;11.43;;
37355;SDS011;48747;50.250;18.848;2022-08-19T01:48:51;17.00;;;11.70;;
37355;SDS011;48747;50.250;18.848;2022-08-19T01:50:54;12.78;;;11.00;;
37355;SDS011;48747;50.250;18.848;2022-08-19T01:52:57;14.68;;;11.35;;
37355;SDS011;48747;50.250;18.848;2022-08-19T01:55:04;15.05;;;11.05;;
37355;SDS011;48747;50.250;18.848;2022-08-19T01:57:12;15.80;;;11.78;;
37355;SDS011;48747;50.250;18.848;2022-08-19T01:59:17;16.20;;;12.15;;
37355;SDS011;48747;50.250;18.848;2022-08-19T02:01:22;15.38;;;11.22;;
37355;SDS011;48747;50.250;18.848;2022-08-19T02:03:26;14.87;;;11.85;;
37355;SDS011;48747;50.250;18.848;2022-08-19T02:05:32;17.00;;;12.40;;
37355;SDS011;48747;50.250;18.848;2022-08-19T02:07:35;16.82;;;11.45;;
37355;SDS011;48747;50.250;18.848;2022-08-19T02:09:40;17.70;;;12.20;;
37355;SDS011;48747;50.250;18.848;2022-08-19T02:11:43;14.20;;;11.33;;
37355;SDS011;48747;50.250;18.848;2022-08-19T02:13:46;13.30;;;11.50;;
37355;SDS011;48747;50.250;18.848;2022-08-19T02:15:51;15.55;;;11.83;;
37355;SDS011;48747;50.250;18.848;2022-08-19T02:17:54;16.75;;;11.70;;
37355;SDS011;48747;50.250;18.848;2022-08-19T02:19:58;16.25;;;12.18;;
37355;SDS011;48747;50.250;18.848;2022-08-19T02:22:01;15.80;;;12.63;;
37355;SDS011;48747;50.250;18.848;2022-08-19T02:24:06;14.13;;;11.70;;
37355;SDS011;48747;50.250;18.848;2022-08-19T02:26:09;14.58;;;12.07;;
37355;SDS011;48747;50.250;18.848;2022-08-19T02:28:13;16.10;;;12.53;;
37355;SDS011;48747;50.250;18.848;2022-08-19T02:30:20;16.55;;;11.68;;
37355;SDS011;48747;50.250;18.848;2022-08-19T02:32:24;14.78;;;11.73;;
37355;SDS011;48747;50.250;18.848;2022-08-19T02:34:28;15.45;;;11.60;;
37355;SDS011;48747;50.250;18.848;2022-08-19T02:36:31;13.80;;;12.20;;
37355;SDS011;48747;50.250;18.848;2022-08-19T02:38:42;13.45;;;11.95;;
37355;SDS011;48747;50.250;18.848;2022-08-19T02:42:53;15.18;;;12.65;;
37355;SDS011;48747;50.250;18.848;2022-08-19T02:44:57;16.25;;;12.90;;
37355;SDS011;48747;50.250;18.848;2022-08-19T02:47:01;14.55;;;12.98;;
37355;SDS011;48747;50.250;18.848;2022-08-19T02:49:05;18.12;;;12.80;;
37355;SDS011;48747;50.250;18.848;2022-08-19T02:51:15;16.97;;;12.90;;
37355;SDS011;48747;50.250;18.848;2022-08-19T02:53:21;18.45;;;12.73;;
37355;SDS011;48747;50.250;18.848;2022-08-19T02:55:22;18.92;;;12.50;;
37355;SDS011;48747;50.250;18.848;2022-08-19T02:57:25;15.70;;;13.15;;
37355;SDS011;48747;50.250;18.848;2022-08-19T02:59:29;16.37;;;13.30;;
37355;SDS011;48747;50.250;18.848;2022-08-19T03:01:34;18.32;;;12.95;;
37355;SDS011;48747;50.250;18.848;2022-08-19T03:03:39;16.12;;;12.85;;
37355;SDS011;48747;50.250;18.848;2022-08-19T03:05:44;19.80;;;13.60;;
37355;SDS011;48747;50.250;18.848;2022-08-19T03:08:02;21.52;;;14.28;;
37355;SDS011;48747;50.250;18.848;2022-08-19T03:09:56;17.82;;;13.75;;
37355;SDS011;48747;50.250;18.848;2022-08-19T03:11:59;18.70;;;14.47;;
37355;SDS011;48747;50.250;18.848;2022-08-19T03:14:08;17.40;;;13.40;;
37355;SDS011;48747;50.250;18.848;2022-08-19T03:16:10;17.87;;;13.88;;
37355;SDS011;48747;50.250;18.848;2022-08-19T03:18:19;16.00;;;13.22;;
37355;SDS011;48747;50.250;18.848;2022-08-19T03:20:20;20.37;;;13.35;;
37355;SDS011;48747;50.250;18.848;2022-08-19T03:22:26;18.65;;;13.40;;
37355;SDS011;48747;50.250;18.848;2022-08-19T03:24:28;18.50;;;13.70;;
37355;SDS011;48747;50.250;18.848;2022-08-19T03:26:37;15.35;;;12.88;;
37355;SDS011;48747;50.250;18.848;2022-08-19T03:28:44;17.52;;;12.95;;
37355;SDS011;48747;50.250;18.848;2022-08-19T03:31:02;18.98;;;13.50;;
37355;SDS011;48747;50.250;18.848;2022-08-19T03:33:10;17.90;;;13.50;;
37355;SDS011;48747;50.250;18.848;2022-08-19T03:35:16;17.12;;;13.28;;
37355;SDS011;48747;50.250;18.848;2022-08-19T03:37:20;17.77;;;12.80;;
37355;SDS011;48747;50.250;18.848;2022-08-19T03:39:25;15.75;;;13.80;;
37355;SDS011;48747;50.250;18.848;2022-08-19T03:41:30;19.62;;;13.25;;
37355;SDS011;48747;50.250;18.848;2022-08-19T03:43:38;17.32;;;13.50;;
37355;SDS011;48747;50.250;18.848;2022-08-19T03:45:42;19.57;;;13.75;;
37355;SDS011;48747;50.250;18.848;2022-08-19T03:47:45;19.27;;;13.35;;
37355;SDS011;48747;50.250;18.848;2022-08-19T03:50:03;20.68;;;13.48;;
37355;SDS011;48747;50.250;18.848;2022-08-19T03:51:59;15.68;;;13.50;;
37355;SDS011;48747;50.250;18.848;2022-08-19T03:54:08;20.82;;;14.25;;
37355;SDS011;48747;50.250;18.848;2022-08-19T03:56:11;16.75;;;13.40;;
37355;SDS011;48747;50.250;18.848;2022-08-19T03:58:19;18.12;;;13.38;;
37355;SDS011;48747;50.250;18.848;2022-08-19T04:00:26;16.02;;;13.78;;
37355;SDS011;48747;50.250;18.848;2022-08-19T04:02:30;15.32;;;13.40;;
37355;SDS011;48747;50.250;18.848;2022-08-19T04:04:39;16.45;;;14.03;;
37355;SDS011;48747;50.250;18.848;2022-08-19T04:06:49;15.93;;;13.28;;
37355;SDS011;48747;50.250;18.848;2022-08-19T04:11:00;17.32;;;13.72;;
37355;SDS011;48747;50.250;18.848;2022-08-19T04:13:11;16.52;;;13.90;;
37355;SDS011;48747;50.250;18.848;2022-08-19T04:15:27;14.95;;;13.32;;
37355;SDS011;48747;50.250;18.848;2022-08-19T04:17:29;16.52;;;13.30;;
37355;SDS011;48747;50.250;18.848;2022-08-19T04:19:35;16.87;;;13.60;;
37355;SDS011;48747;50.250;18.848;2022-08-19T04:21:39;16.25;;;13.58;;
37355;SDS011;48747;50.250;18.848;2022-08-19T04:23:44;20.00;;;12.95;;
37355;SDS011;48747;50.250;18.848;2022-08-19T04:25:49;17.70;;;12.93;;
37355;SDS011;48747;50.250;18.848;2022-08-19T04:27:57;15.98;;;13.62;;
37355;SDS011;48747;50.250;18.848;2022-08-19T04:30:05;17.35;;;13.08;;
37355;SDS011;48747;50.250;18.848;2022-08-19T04:32:08;18.37;;;13.22;;
37355;SDS011;48747;50.250;18.848;2022-08-19T04:34:12;19.77;;;12.80;;
37355;SDS011;48747;50.250;18.848;2022-08-19T04:36:18;17.23;;;12.78;;
37355;SDS011;48747;50.250;18.848;2022-08-19T04:38:23;17.37;;;13.22;;
37355;SDS011;48747;50.250;18.848;2022-08-19T04:40:27;18.70;;;13.38;;
37355;SDS011;48747;50.250;18.848;2022-08-19T04:42:49;15.35;;;12.47;;
37355;SDS011;48747;50.250;18.848;2022-08-19T04:44:55;15.23;;;12.85;;
37355;SDS011;48747;50.250;18.848;2022-08-19T04:47:00;15.03;;;12.90;;
37355;SDS011;48747;50.250;18.848;2022-08-19T04:49:06;18.48;;;12.88;;
37355;SDS011;48747;50.250;18.848;2022-08-19T04:51:10;17.00;;;12.55;;
37355;SDS011;48747;50.250;18.848;2022-08-19T04:53:20;17.80;;;13.20;;
37355;SDS011;48747;50.250;18.848;2022-08-19T04:55:26;16.70;;;12.53;;
37355;SDS011;48747;50.250;18.848;2022-08-19T04:57:31;22.52;;;12.80;;
37355;SDS011;48747;50.250;18.848;2022-08-19T04:59:40;18.95;;;12.93;;
37355;SDS011;48747;50.250;18.848;2022-08-19T05:01:52;16.80;;;12.53;;
37355;SDS011;48747;50.250;18.848;2022-08-19T05:03:57;20.48;;;12.98;;
37355;SDS011;48747;50.250;18.848;2022-08-19T05:06:08;14.38;;;12.63;;
37355;SDS011;48747;50.250;18.848;2022-08-19T05:08:08;15.93;;;12.45;;
37355;SDS011;48747;50.250;18.848;2022-08-19T05:10:15;18.50;;;13.35;;
37355;SDS011;48747;50.250;18.848;2022-08-19T05:12:20;16.55;;;12.53;;
37355;SDS011;48747;50.250;18.848;2022-08-19T05:14:24;17.65;;;12.90;;
37355;SDS011;48747;50.250;18.848;2022-08-19T05:16:28;17.50;;;12.47;;
37355;SDS011;48747;50.250;18.848;2022-08-19T05:18:41;17.75;;;13.30;;
37355;SDS011;48747;50.250;18.848;2022-08-19T05:20:54;17.52;;;12.23;;
37355;SDS011;48747;50.250;18.848;2022-08-19T05:23:15;19.43;;;12.77;;
37355;SDS011;48747;50.250;18.848;2022-08-19T05:25:20;14.63;;;12.80;;
37355;SDS011;48747;50.250;18.848;2022-08-19T05:27:27;16.30;;;12.50;;
37355;SDS011;48747;50.250;18.848;2022-08-19T05:29:36;16.07;;;12.33;;
37355;SDS011;48747;50.250;18.848;2022-08-19T05:31:43;15.53;;;12.73;;
37355;SDS011;48747;50.250;18.848;2022-08-19T05:33:49;19.30;;;12.55;;
37355;SDS011;48747;50.250;18.848;2022-08-19T05:35:53;15.93;;;12.70;;
37355;SDS011;48747;50.250;18.848;2022-08-19T05:38:01;15.83;;;12.70;;
37355;SDS011;48747;50.250;18.848;2022-08-19T05:40:05;16.75;;;12.53;;
37355;SDS011;48747;50.250;18.848;2022-08-19T05:42:14;15.75;;;11.93;;
37355;SDS011;48747;50.250;18.848;2022-08-19T05:44:18;15.75;;;12.40;;
37355;SDS011;48747;50.250;18.848;2022-08-19T05:46:23;15.88;;;13.25;;
37355;SDS011;48747;50.250;18.848;2022-08-19T05:48:27;16.27;;;11.90;;
37355;SDS011;48747;50.250;18.848;2022-08-19T05:50:35;17.00;;;11.73;;
37355;SDS011;48747;50.250;18.848;2022-08-19T05:52:37;15.58;;;12.30;;
37355;SDS011;48747;50.250;18.848;2022-08-19T05:54:41;14.87;;;11.83;;
37355;SDS011;48747;50.250;18.848;2022-08-19T05:56:49;19.67;;;12.90;;
37355;SDS011;48747;50.250;18.848;2022-08-19T05:58:54;18.50;;;12.25;;
37355;SDS011;48747;50.250;18.848;2022-08-19T06:00:57;16.67;;;12.40;;
37355;SDS011;48747;50.250;18.848;2022-08-19T06:03:03;20.08;;;13.43;;
37355;SDS011;48747;50.250;18.848;2022-08-19T06:05:08;18.98;;;12.18;;
37355;SDS011;48747;50.250;18.848;2022-08-19T06:09:21;20.75;;;12.58;;
37355;SDS011;48747;50.250;18.848;2022-08-19T06:11:42;17.40;;;12.33;;
37355;SDS011;48747;50.250;18.848;2022-08-19T06:13:54;16.55;;;11.38;;
37355;SDS011;48747;50.250;18.848;2022-08-19T06:15:58;17.00;;;10.90;;
37355;SDS011;48747;50.250;18.848;2022-08-19T06:18:04;17.87;;;12.28;;
37355;SDS011;48747;50.250;18.848;2022-08-19T06:20:07;16.97;;;12.15;;
37355;SDS011;48747;50.250;18.848;2022-08-19T06:22:13;16.97;;;11.22;;
37355;SDS011;48747;50.250;18.848;2022-08-19T06:24:19;16.77;;;13.08;;
37355;SDS011;48747;50.250;18.848;2022-08-19T06:26:32;17.62;;;12.20;;
37355;SDS011;48747;50.250;18.848;2022-08-19T06:28:32;19.32;;;12.20;;
37355;SDS011;48747;50.250;18.848;2022-08-19T06:30:35;17.50;;;12.03;;
37355;SDS011;48747;50.250;18.848;2022-08-19T06:32:45;16.32;;;11.95;;
37355;SDS011;48747;50.250;18.848;2022-08-19T06:34:45;21.30;;;11.93;;
37355;SDS011;48747;50.250;18.848;2022-08-19T06:36:51;15.85;;;11.65;;
37355;SDS011;48747;50.250;18.848;2022-08-19T06:39:02;15.32;;;11.88;;
37355;SDS011;48747;50.250;18.848;2022-08-19T06:41:30;16.82;;;11.73;;
37355;SDS011;48747;50.250;18.848;2022-08-19T07:02:13;15.45;;;11.50;;
37355;SDS011;48747;50.250;18.848;2022-08-19T07:04:35;16.77;;;11.70;;
37355;SDS011;48747;50.250;18.848;2022-08-19T07:10:54;19.15;;;11.78;;
37355;SDS011;48747;50.250;18.848;2022-08-19T07:28:10;18.45;;;10.50;;
37355;SDS011;48747;50.250;18.848;2022-08-19T07:34:37;15.83;;;11.08;;
37355;SDS011;48747;50.250;18.848;2022-08-19T07:36:49;17.35;;;11.05;;
37355;SDS011;48747;50.250;18.848;2022-08-19T09:01:13;14.60;;;9.90;;
37355;SDS011;48747;50.250;18.848;2022-08-19T09:03:20;17.27;;;9.90;;
37355;SDS011;48747;50.250;18.848;2022-08-19T09:05:30;16.37;;;10.43;;
37355;SDS011;48747;50.250;18.848;2022-08-19T09:09:50;16.35;;;9.98;;
37355;SDS011;48747;50.250;18.848;2022-08-19T09:12:04;18.07;;;9.80;;
37355;SDS011;48747;50.250;18.848;2022-08-19T09:16:36;16.35;;;10.90;;
37355;SDS011;48747;50.250;18.848;2022-08-19T09:18:43;16.70;;;9.80;;
37355;SDS011;48747;50.250;18.848;2022-08-19T09:20:53;17.52;;;10.13;;
37355;SDS011;48747;50.250;18.848;2022-08-19T09:22:53;19.62;;;10.70;;
37355;SDS011;48747;50.250;18.848;2022-08-19T09:25:01;18.82;;;10.43;;
37355;SDS011;48747;50.250;18.848;2022-08-19T09:27:16;17.90;;;9.80;;
37355;SDS011;48747;50.250;18.848;2022-08-19T09:52:54;14.83;;;10.43;;
37355;SDS011;48747;50.250;18.848;2022-08-19T09:54:59;18.32;;;10.00;;
37355;SDS011;48747;50.250;18.848;2022-08-19T09:57:17;17.42;;;10.43;;
37355;SDS011;48747;50.250;18.848;2022-08-19T09:59:34;14.93;;;10.30;;
37355;SDS011;48747;50.250;18.848;2022-08-19T10:01:37;22.27;;;10.00;;
37355;SDS011;48747;50.250;18.848;2022-08-19T10:08:30;18.82;;;9.73;;
37355;SDS011;48747;50.250;18.848;2022-08-19T10:21:53;14.68;;;8.65;;
37355;SDS011;48747;50.250;18.848;2022-08-19T10:26:45;10.10;;;7.00;;
37355;SDS011;48747;50.250;18.848;2022-08-19T10:28:50;10.43;;;7.42;;
37355;SDS011;48747;50.250;18.848;2022-08-19T10:31:02;12.68;;;7.30;;
37355;SDS011;48747;50.250;18.848;2022-08-19T10:33:07;15.40;;;7.85;;
37355;SDS011;48747;50.250;18.848;2022-08-19T10:35:17;13.75;;;7.53;;
37355;SDS011;48747;50.250;18.848;2022-08-19T10:37:18;15.15;;;7.08;;
37355;SDS011;48747;50.250;18.848;2022-08-19T10:39:25;14.40;;;7.17;;
37355;SDS011;48747;50.250;18.848;2022-08-19T10:43:35;13.68;;;7.42;;
37355;SDS011;48747;50.250;18.848;2022-08-19T10:45:39;12.03;;;7.33;;
37355;SDS011;48747;50.250;18.848;2022-08-19T10:47:43;12.13;;;7.42;;
37355;SDS011;48747;50.250;18.848;2022-08-19T10:49:53;10.40;;;7.58;;
37355;SDS011;48747;50.250;18.848;2022-08-19T10:52:10;14.13;;;8.18;;
37355;SDS011;48747;50.250;18.848;2022-08-19T10:54:32;14.13;;;8.10;;
37355;SDS011;48747;50.250;18.848;2022-08-19T10:56:55;13.20;;;8.73;;
37355;SDS011;48747;50.250;18.848;2022-08-19T10:59:00;16.00;;;8.58;;
37355;SDS011;48747;50.250;18.848;2022-08-19T11:01:04;13.18;;;8.35;;
37355;SDS011;48747;50.250;18.848;2022-08-19T11:03:19;13.80;;;8.48;;
37355;SDS011;48747;50.250;18.848;2022-08-19T11:05:19;14.38;;;9.68;;
37355;SDS011;48747;50.250;18.848;2022-08-19T11:07:27;13.70;;;8.88;;
37355;SDS011;48747;50.250;18.848;2022-08-19T11:09:37;14.13;;;9.90;;
37355;SDS011;48747;50.250;18.848;2022-08-19T11:11:48;11.28;;;9.33;;
37355;SDS011;48747;50.250;18.848;2022-08-19T11:13:55;14.28;;;9.48;;
37355;SDS011;48747;50.250;18.848;2022-08-19T11:18:12;11.55;;;8.00;;
37355;SDS011;48747;50.250;18.848;2022-08-19T11:20:21;14.83;;;11.15;;
37355;SDS011;48747;50.250;18.848;2022-08-19T11:22:30;19.52;;;16.87;;
37355;SDS011;48747;50.250;18.848;2022-08-19T11:24:40;15.15;;;13.58;;
37355;SDS011;48747;50.250;18.848;2022-08-19T11:26:52;17.90;;;16.25;;
37355;SDS011;48747;50.250;18.848;2022-08-19T11:29:07;21.95;;;19.82;;
37355;SDS011;48747;50.250;18.848;2022-08-19T11:31:22;21.55;;;19.95;;
37355;SDS011;48747;50.250;18.848;2022-08-19T11:42:51;16.12;;;14.25;;
37355;SDS011;48747;50.250;18.848;2022-08-19T11:45:03;14.33;;;12.88;;
37355;SDS011;48747;50.250;18.848;2022-08-19T11:49:22;14.43;;;12.58;;
37355;SDS011;48747;50.250;18.848;2022-08-19T11:56:02;17.32;;;14.80;;
37355;SDS011;48747;50.250;18.848;2022-08-19T11:58:09;15.38;;;13.78;;
37355;SDS011;48747;50.250;18.848;2022-08-19T12:00:26;13.70;;;11.15;;
37355;SDS011;48747;50.250;18.848;2022-08-19T12:02:33;11.70;;;10.60;;
37355;SDS011;48747;50.250;18.848;2022-08-19T12:04:51;12.65;;;10.03;;
37355;SDS011;48747;50.250;18.848;2022-08-19T12:07:03;12.47;;;10.23;;
37355;SDS011;48747;50.250;18.848;2022-08-19T12:09:19;21.40;;;12.45;;
37355;SDS011;48747;50.250;18.848;2022-08-19T13:09:36;15.43;;;10.78;;
37355;SDS011;48747;50.250;18.848;2022-08-19T13:12:05;14.20;;;10.98;;
37355;SDS011;48747;50.250;18.848;2022-08-19T13:14:16;30.02;;;27.22;;
37355;SDS011;48747;50.250;18.848;2022-08-19T13:16:25;22.42;;;20.27;;
37355;SDS011;48747;50.250;18.848;2022-08-19T14:07:55;13.95;;;6.67;;
37355;SDS011;48747;50.250;18.848;2022-08-19T14:12:28;18.75;;;7.03;;
37355;SDS011;48747;50.250;18.848;2022-08-19T14:14:28;15.72;;;7.35;;
37355;SDS011;48747;50.250;18.848;2022-08-19T14:18:48;14.43;;;8.08;;
37355;SDS011;48747;50.250;18.848;2022-08-19T14:23:17;23.38;;;8.03;;
37355;SDS011;48747;50.250;18.848;2022-08-19T14:25:25;12.78;;;7.50;;
37355;SDS011;48747;50.250;18.848;2022-08-19T14:27:29;12.40;;;7.95;;
37355;SDS011;48747;50.250;18.848;2022-08-19T14:29:51;13.22;;;7.00;;
37355;SDS011;48747;50.250;18.848;2022-08-19T14:32:20;14.40;;;7.10;;
37355;SDS011;48747;50.250;18.848;2022-08-19T14:34:13;12.50;;;7.60;;
37355;SDS011;48747;50.250;18.848;2022-08-19T14:38:49;15.55;;;7.45;;
37355;SDS011;48747;50.250;18.848;2022-08-19T14:51:37;17.25;;;10.93;;
37355;SDS011;48747;50.250;18.848;2022-08-19T14:53:40;18.77;;;9.33;;
37355;SDS011;48747;50.250;18.848;2022-08-19T14:55:45;14.43;;;8.90;;
37355;SDS011;48747;50.250;18.848;2022-08-19T14:57:48;13.03;;;7.55;;
37355;SDS011;48747;50.250;18.848;2022-08-19T14:59:52;12.60;;;6.62;;
37355;SDS011;48747;50.250;18.848;2022-08-19T15:01:55;68.62;;;15.88;;
37355;SDS011;48747;50.250;18.848;2022-08-19T15:04:00;15.98;;;8.48;;
37355;SDS011;48747;50.250;18.848;2022-08-19T15:06:03;13.72;;;7.67;;
37355;SDS011;48747;50.250;18.848;2022-08-19T15:08:07;14.80;;;6.87;;
37355;SDS011;48747;50.250;18.848;2022-08-19T15:10:11;17.20;;;7.12;;
37355;SDS011;48747;50.250;18.848;2022-08-19T15:12:15;13.80;;;7.12;;
37355;SDS011;48747;50.250;18.848;2022-08-19T15:14:20;14.58;;;6.87;;
37355;SDS011;48747;50.250;18.848;2022-08-19T15:16:23;12.65;;;7.00;;
37355;SDS011;48747;50.250;18.848;2022-08-19T15:18:29;16.77;;;6.75;;
37355;SDS011;48747;50.250;18.848;2022-08-19T15:20:54;13.48;;;6.60;;
37355;SDS011;48747;50.250;18.848;2022-08-19T15:22:41;12.45;;;7.08;;
37355;SDS011;48747;50.250;18.848;2022-08-19T15:24:44;14.70;;;9.43;;
37355;SDS011;48747;50.250;18.848;2022-08-19T15:26:48;14.15;;;9.50;;
37355;SDS011;48747;50.250;18.848;2022-08-19T15:28:56;13.90;;;8.93;;
37355;SDS011;48747;50.250;18.848;2022-08-19T15:31:00;15.45;;;9.80;;
37355;SDS011;48747;50.250;18.848;2022-08-19T15:33:06;16.35;;;9.53;;
37355;SDS011;48747;50.250;18.848;2022-08-19T15:35:12;18.82;;;8.23;;
37355;SDS011;48747;50.250;18.848;2022-08-19T15:37:15;15.63;;;7.65;;
37355;SDS011;48747;50.250;18.848;2022-08-19T15:39:20;21.95;;;13.08;;
37355;SDS011;48747;50.250;18.848;2022-08-19T15:41:30;15.98;;;12.47;;
37355;SDS011;48747;50.250;18.848;2022-08-19T15:56:28;29.75;;;26.97;;
37355;SDS011;48747;50.250;18.848;2022-08-19T16:04:25;22.93;;;21.02;;
37355;SDS011;48747;50.250;18.848;2022-08-19T16:09:12;16.75;;;12.35;;
37355;SDS011;48747;50.250;18.848;2022-08-19T16:11:32;15.55;;;9.13;;
37355;SDS011;48747;50.250;18.848;2022-08-19T16:13:38;17.98;;;9.93;;
37355;SDS011;48747;50.250;18.848;2022-08-19T16:15:52;16.37;;;10.63;;
37355;SDS011;48747;50.250;18.848;2022-08-19T16:18:14;18.62;;;11.33;;
37355;SDS011;48747;50.250;18.848;2022-08-19T16:20:17;19.10;;;12.85;;
37355;SDS011;48747;50.250;18.848;2022-08-19T16:22:27;18.92;;;11.45;;
37355;SDS011;48747;50.250;18.848;2022-08-19T16:24:31;22.65;;;16.75;;
37355;SDS011;48747;50.250;18.848;2022-08-19T16:26:35;21.42;;;19.65;;
37355;SDS011;48747;50.250;18.848;2022-08-19T16:28:38;24.18;;;22.00;;
37355;SDS011;48747;50.250;18.848;2022-08-19T16:30:41;21.68;;;19.52;;
37355;SDS011;48747;50.250;18.848;2022-08-19T16:32:49;20.52;;;18.42;;
37355;SDS011;48747;50.250;18.848;2022-08-19T16:34:54;16.20;;;13.78;;
37355;SDS011;48747;50.250;18.848;2022-08-19T16:36:59;16.45;;;14.60;;
37355;SDS011;48747;50.250;18.848;2022-08-19T16:39:07;18.30;;;16.35;;
37355;SDS011;48747;50.250;18.848;2022-08-19T16:41:13;20.75;;;17.27;;
37355;SDS011;48747;50.250;18.848;2022-08-19T16:43:20;17.50;;;15.72;;
37355;SDS011;48747;50.250;18.848;2022-08-19T16:45:23;17.95;;;11.10;;
37355;SDS011;48747;50.250;18.848;2022-08-19T16:47:28;14.13;;;9.03;;
37355;SDS011;48747;50.250;18.848;2022-08-19T16:49:31;19.92;;;10.50;;
37355;SDS011;48747;50.250;18.848;2022-08-19T16:51:38;16.37;;;8.95;;
37355;SDS011;48747;50.250;18.848;2022-08-19T16:53:44;22.45;;;9.90;;
37355;SDS011;48747;50.250;18.848;2022-08-19T16:55:49;17.92;;;8.90;;
37355;SDS011;48747;50.250;18.848;2022-08-19T16:57:56;17.92;;;8.58;;
37355;SDS011;48747;50.250;18.848;2022-08-19T17:00:00;17.02;;;8.50;;
37355;SDS011;48747;50.250;18.848;2022-08-19T17:02:05;14.80;;;8.50;;
37355;SDS011;48747;50.250;18.848;2022-08-19T17:04:09;21.60;;;9.65;;
37355;SDS011;48747;50.250;18.848;2022-08-19T17:06:16;25.52;;;11.10;;
37355;SDS011;48747;50.250;18.848;2022-08-19T17:08:29;14.83;;;8.88;;
37355;SDS011;48747;50.250;18.848;2022-08-19T17:10:49;14.98;;;9.75;;
37355;SDS011;48747;50.250;18.848;2022-08-19T17:12:41;21.30;;;10.65;;
37355;SDS011;48747;50.250;18.848;2022-08-19T17:14:51;18.50;;;8.80;;
37355;SDS011;48747;50.250;18.848;2022-08-19T17:17:00;15.10;;;7.60;;
37355;SDS011;48747;50.250;18.848;2022-08-19T17:19:03;16.35;;;9.15;;
37355;SDS011;48747;50.250;18.848;2022-08-19T17:21:20;18.35;;;8.30;;
37355;SDS011;48747;50.250;18.848;2022-08-19T17:23:21;18.42;;;8.13;;
37355;SDS011;48747;50.250;18.848;2022-08-19T17:25:29;15.35;;;7.97;;
37355;SDS011;48747;50.250;18.848;2022-08-19T17:27:36;14.28;;;7.20;;
37355;SDS011;48747;50.250;18.848;2022-08-19T17:29:46;15.53;;;8.38;;
37355;SDS011;48747;50.250;18.848;2022-08-19T17:31:47;12.63;;;8.40;;
37355;SDS011;48747;50.250;18.848;2022-08-19T17:33:55;21.45;;;7.05;;
37355;SDS011;48747;50.250;18.848;2022-08-19T17:36:04;15.88;;;6.90;;
37355;SDS011;48747;50.250;18.848;2022-08-19T17:38:12;17.25;;;7.47;;
37355;SDS011;48747;50.250;18.848;2022-08-19T17:40:17;13.83;;;6.75;;
37355;SDS011;48747;50.250;18.848;2022-08-19T17:42:20;13.78;;;6.37;;
37355;SDS011;48747;50.250;18.848;2022-08-19T17:44:23;17.62;;;5.75;;
37355;SDS011;48747;50.250;18.848;2022-08-19T17:46:28;16.90;;;5.40;;
37355;SDS011;48747;50.250;18.848;2022-08-19T17:50:42;9.33;;;5.28;;
37355;SDS011;48747;50.250;18.848;2022-08-19T17:52:47;13.20;;;5.97;;
37355;SDS011;48747;50.250;18.848;2022-08-19T17:54:52;17.30;;;6.87;;
37355;SDS011;48747;50.250;18.848;2022-08-19T17:56:57;11.93;;;6.90;;
37355;SDS011;48747;50.250;18.848;2022-08-19T17:59:00;15.00;;;6.47;;
37355;SDS011;48747;50.250;18.848;2022-08-19T18:01:03;11.40;;;6.58;;
37355;SDS011;48747;50.250;18.848;2022-08-19T18:03:08;13.22;;;5.85;;
37355;SDS011;48747;50.250;18.848;2022-08-19T18:05:11;15.13;;;6.10;;